createdAt,value
2018-03-17T00:02:10.188Z,4.83
2018-03-17T00:04:38.499Z,9.43
2018-03-17T00:07:05.825Z,5.80
2018-03-17T00:09:34.028Z,8.07
2018-03-17T00:12:02.333Z,7.57
2018-03-17T00:14:29.739Z,8.10
2018-03-17T00:16:57.198Z,6.30
2018-03-17T00:19:25.398Z,7.30
2018-03-17T00:21:52.869Z,9.23
2018-03-17T00:24:20.388Z,5.33
2018-03-17T00:26:47.905Z,7.00
2018-03-17T00:29:16.306Z,6.53
2018-03-17T00:31:44.536Z,8.40
2018-03-17T00:34:12.644Z,7.47
2018-03-17T00:36:40.027Z,5.20
2018-03-17T00:39:07.474Z,5.60
2018-03-17T00:41:35.693Z,4.83
2018-03-17T00:44:03.128Z,28.23
2018-03-17T00:46:31.268Z,6.30
2018-03-17T00:48:59.593Z,8.07
2018-03-17T00:51:27.661Z,7.50
2018-03-17T00:53:55.821Z,7.00
2018-03-17T00:56:23.260Z,8.30
2018-03-17T00:58:50.708Z,6.27
2018-03-17T01:01:18.888Z,6.50
2018-03-17T01:03:47.198Z,5.53
2018-03-17T01:06:15.381Z,6.90
2018-03-17T01:08:42.745Z,7.77
2018-03-17T01:11:11.144Z,6.67
2018-03-17T01:13:38.505Z,7.33
2018-03-17T01:16:05.948Z,5.03
2018-03-17T01:18:34.132Z,7.77
2018-03-17T01:21:01.489Z,10.10
2018-03-17T01:23:29.728Z,8.27
2018-03-17T01:25:57.115Z,8.07
2018-03-17T01:28:25.390Z,8.40
2018-03-17T01:30:52.976Z,7.03
2018-03-17T01:33:21.416Z,7.87
2018-03-17T01:35:49.788Z,7.13
2018-03-17T01:38:17.123Z,6.87
2018-03-17T01:40:44.509Z,6.07
2018-03-17T01:43:12.679Z,11.60
2018-03-17T01:45:40.118Z,6.87
2018-03-17T01:48:08.322Z,6.60
2018-03-17T01:50:36.617Z,5.23
2018-03-17T01:53:04.750Z,12.00
2018-03-17T01:55:32.851Z,6.30
2018-03-17T01:58:01.155Z,9.87
2018-03-17T02:00:29.239Z,8.83
2018-03-17T02:02:56.635Z,7.83
2018-03-17T02:05:24.005Z,10.33
2018-03-17T02:07:51.371Z,16.10
2018-03-17T02:10:19.493Z,8.40
2018-03-17T02:12:46.881Z,12.03
2018-03-17T02:15:14.229Z,8.33
2018-03-17T02:17:42.556Z,9.90
2018-03-17T02:20:10.749Z,8.93
2018-03-17T02:22:38.159Z,9.23
2018-03-17T02:25:06.408Z,10.03
2018-03-17T02:27:33.781Z,6.33
2018-03-17T02:30:01.138Z,11.43
2018-03-17T02:32:28.467Z,11.83
2018-03-17T02:34:56.764Z,9.50
2018-03-17T02:37:24.859Z,8.87
2018-03-17T02:39:53.043Z,10.77
2018-03-17T02:42:21.216Z,8.07
2018-03-17T02:44:48.592Z,9.23
2018-03-17T02:47:15.924Z,7.83
2018-03-17T02:49:43.251Z,8.53
2018-03-17T02:52:11.353Z,9.87
2018-03-17T02:54:38.742Z,9.80
2018-03-17T02:57:07.033Z,9.93
2018-03-17T02:59:34.520Z,11.83
2018-03-17T03:02:02.800Z,10.23
2018-03-17T03:04:30.570Z,9.40
2018-03-17T03:06:58.213Z,8.93
2018-03-17T03:09:26.523Z,10.83
2018-03-17T03:11:53.891Z,8.83
2018-03-17T03:14:22.065Z,8.00
2018-03-17T03:16:49.413Z,8.60
2018-03-17T03:19:16.801Z,7.23
2018-03-17T03:21:44.125Z,8.33
2018-03-17T03:24:11.516Z,8.73
2018-03-17T03:26:39.625Z,10.40
2018-03-17T03:29:07.818Z,9.03
2018-03-17T03:31:36.203Z,8.87
2018-03-17T03:34:03.696Z,9.77
2018-03-17T03:36:31.990Z,8.43
2018-03-17T03:39:00.096Z,9.73
2018-03-17T03:41:27.464Z,8.67
2018-03-17T03:43:54.773Z,8.07
2018-03-17T03:46:23.268Z,10.77
2018-03-17T03:48:51.328Z,9.60
2018-03-17T03:51:19.444Z,12.13
2018-03-17T03:53:46.791Z,10.70
2018-03-17T03:56:14.908Z,10.23
2018-03-17T03:58:42.268Z,10.23
2018-03-17T04:01:09.917Z,9.90
2018-03-17T04:03:37.265Z,13.93
2018-03-17T04:06:05.536Z,12.00
2018-03-17T04:08:32.869Z,11.93
2018-03-17T04:11:00.337Z,10.90
2018-03-17T04:13:27.688Z,11.27
2018-03-17T04:15:55.828Z,13.63
2018-03-17T04:18:24.203Z,12.33
2018-03-17T04:20:52.357Z,12.90
2018-03-17T04:23:20.616Z,11.77
2018-03-17T04:25:48.899Z,13.03
2018-03-17T04:28:16.236Z,15.23
2018-03-17T04:30:44.539Z,13.13
2018-03-17T04:33:12.648Z,13.33
2018-03-17T04:35:40.932Z,17.87
2018-03-17T04:38:08.268Z,14.83
2018-03-17T04:40:35.628Z,13.67
2018-03-17T04:43:03.685Z,13.17
2018-03-17T04:45:31.974Z,14.63
2018-03-17T04:48:00.101Z,12.97
2018-03-17T04:50:27.819Z,14.30
2018-03-17T04:52:55.199Z,15.13
2018-03-17T04:55:22.645Z,13.90
2018-03-17T04:57:50.044Z,15.80
2018-03-17T05:00:18.339Z,14.90
2018-03-17T05:02:45.665Z,14.90
2018-03-17T05:05:13.960Z,14.57
2018-03-17T05:07:42.067Z,15.20
2018-03-17T05:10:10.408Z,14.83
2018-03-17T05:12:38.670Z,15.63
2018-03-17T05:15:06.066Z,15.10
2018-03-17T05:17:33.393Z,15.47
2018-03-17T05:20:01.508Z,16.90
2018-03-17T05:22:28.845Z,14.27
2018-03-17T05:24:56.997Z,16.53
2018-03-17T05:27:24.385Z,16.53
2018-03-17T05:29:51.733Z,14.60
2018-03-17T05:32:19.904Z,13.47
2018-03-17T05:34:48.194Z,18.07
2018-03-17T05:37:15.553Z,16.30
2018-03-17T05:39:42.909Z,20.60
2018-03-17T05:42:11.183Z,17.47
2018-03-17T05:44:38.541Z,17.70
2018-03-17T05:47:06.024Z,20.80
2018-03-17T05:49:33.358Z,20.63
2018-03-17T05:52:01.633Z,19.13
2018-03-17T05:54:29.764Z,18.80
2018-03-17T05:56:57.908Z,21.50
2018-03-17T05:59:25.280Z,21.83
2018-03-17T06:01:53.567Z,18.77
2018-03-17T06:04:20.909Z,17.03
2018-03-17T06:06:48.282Z,20.90
2018-03-17T06:09:16.562Z,20.13
2018-03-17T06:11:43.926Z,18.17
2018-03-17T06:14:12.073Z,17.13
2018-03-17T06:16:40.412Z,16.93
2018-03-17T06:19:08.513Z,20.50
2018-03-17T06:21:36.641Z,18.13
2018-03-17T06:24:04.997Z,19.17
2018-03-17T06:26:33.095Z,21.00
2018-03-17T06:29:00.460Z,19.97
2018-03-17T06:31:28.772Z,17.07
2018-03-17T06:33:56.132Z,18.20
2018-03-17T06:36:24.328Z,19.90
2018-03-17T06:38:51.665Z,22.10
2018-03-17T06:41:20.052Z,19.03
2018-03-17T06:43:47.405Z,15.27
2018-03-17T06:46:14.796Z,13.27
2018-03-17T06:48:42.188Z,19.80
2018-03-17T06:51:10.297Z,18.97
2018-03-17T06:53:38.424Z,20.13
2018-03-17T06:56:05.949Z,17.97
2018-03-17T06:58:34.372Z,17.63
2018-03-17T07:01:01.720Z,20.63
2018-03-17T07:03:29.109Z,19.80
2018-03-17T07:05:56.577Z,16.53
2018-03-17T07:08:23.968Z,19.43
2018-03-17T07:10:52.134Z,17.27
2018-03-17T07:13:19.491Z,20.70
2018-03-17T07:15:47.785Z,15.83
2018-03-17T07:18:15.904Z,20.83
2018-03-17T07:20:44.032Z,21.80
2018-03-17T07:23:11.421Z,20.63
2018-03-17T07:25:39.532Z,20.47
2018-03-17T07:28:06.886Z,28.60
2018-03-17T07:30:35.196Z,21.90
2018-03-17T07:33:03.369Z,17.77
2018-03-17T07:35:31.692Z,19.87
2018-03-17T07:37:59.061Z,23.87
2018-03-17T07:40:26.548Z,17.13
2018-03-17T07:42:54.807Z,17.37
2018-03-17T07:45:23.106Z,22.20
2018-03-17T07:47:51.206Z,18.37
2018-03-17T07:50:18.645Z,21.07
2018-03-17T07:52:46.800Z,18.30
2018-03-17T07:55:15.087Z,23.53
2018-03-17T07:57:43.247Z,20.30
2018-03-17T08:00:11.543Z,20.23
2018-03-17T08:02:38.933Z,24.03
2018-03-17T08:05:06.295Z,20.13
2018-03-17T08:07:34.639Z,20.90
2018-03-17T08:10:02.002Z,17.83
2018-03-17T08:12:29.424Z,23.97
2018-03-17T08:14:57.796Z,22.57
2018-03-17T08:17:26.084Z,26.10
2018-03-17T08:19:53.489Z,25.40
2018-03-17T08:22:21.650Z,24.53
2018-03-17T08:24:48.976Z,23.70
2018-03-17T08:27:17.075Z,22.73
2018-03-17T08:29:45.380Z,22.17
2018-03-17T08:32:12.729Z,21.67
2018-03-17T08:34:40.156Z,26.33
2018-03-17T08:37:08.252Z,22.97
2018-03-17T08:39:35.631Z,21.87
2018-03-17T08:42:03.856Z,22.50
2018-03-17T08:44:31.278Z,23.23
2018-03-17T08:46:59.373Z,22.10
2018-03-17T08:49:26.829Z,21.33
2018-03-17T08:51:55.165Z,22.13
2018-03-17T08:54:22.543Z,27.40
2018-03-17T08:56:50.892Z,22.13
2018-03-17T08:59:19.163Z,23.33
2018-03-17T09:01:46.531Z,24.20
2018-03-17T09:04:15.036Z,25.43
2018-03-17T09:06:42.420Z,24.47
2018-03-17T09:09:09.797Z,26.27
2018-03-17T09:11:38.165Z,25.77
2018-03-17T09:14:05.545Z,25.23
2018-03-17T09:16:33.082Z,26.07
2018-03-17T09:19:01.255Z,22.13
2018-03-17T09:21:28.968Z,26.73
2018-03-17T09:23:57.288Z,25.13
2018-03-17T09:26:24.722Z,24.97
2018-03-17T09:28:52.189Z,26.80
2018-03-17T09:31:19.568Z,27.27
2018-03-17T09:33:47.377Z,23.40
2018-03-17T09:36:14.774Z,22.60
2018-03-17T09:38:43.105Z,22.30
2018-03-17T09:41:11.186Z,21.10
2018-03-17T09:43:38.794Z,22.80
2018-03-17T09:46:07.064Z,22.57
2018-03-17T09:48:34.408Z,21.80
2018-03-17T09:51:02.680Z,25.00
2018-03-17T09:53:30.084Z,24.70
2018-03-17T09:55:58.360Z,20.57
2018-03-17T09:58:26.507Z,24.50
2018-03-17T10:01:00.899Z,23.67
2018-03-17T10:03:28.270Z,24.27
2018-03-17T10:05:56.436Z,22.87
2018-03-17T10:08:23.814Z,23.30
2018-03-17T10:10:52.120Z,23.47
2018-03-17T10:13:20.464Z,23.33
2018-03-17T10:15:47.875Z,27.80
2018-03-17T10:18:15.279Z,23.87
2018-03-17T10:20:43.556Z,23.83
2018-03-17T10:23:10.944Z,26.07
2018-03-17T10:25:39.210Z,26.90
2018-03-17T10:28:07.339Z,24.57
2018-03-17T10:30:34.681Z,25.57
2018-03-17T10:33:03.003Z,23.63
2018-03-17T10:35:31.083Z,24.60
2018-03-17T10:37:59.419Z,25.23
2018-03-17T10:40:27.737Z,28.23
2018-03-17T10:42:55.151Z,25.80
2018-03-17T10:45:23.266Z,27.00
2018-03-17T10:47:51.578Z,22.23
2018-03-17T10:50:19.634Z,25.20
2018-03-17T10:52:46.987Z,29.67
2018-03-17T10:55:14.394Z,26.33
2018-03-17T10:57:41.735Z,25.70
2018-03-17T11:00:10.088Z,23.77
2018-03-17T11:02:38.460Z,22.50
2018-03-17T11:05:06.666Z,23.10
2018-03-17T11:07:33.973Z,28.70
2018-03-17T11:10:02.193Z,25.73
2018-03-17T11:12:30.514Z,24.90
2018-03-17T11:14:58.697Z,25.60
2018-03-17T11:17:27.048Z,25.40
2018-03-17T11:19:55.376Z,25.23
2018-03-17T11:22:22.736Z,23.60
2018-03-17T11:24:50.105Z,25.10
2018-03-17T11:27:17.542Z,24.50
2018-03-17T11:29:44.923Z,22.10
2018-03-17T11:32:13.216Z,21.70
2018-03-17T11:34:40.575Z,24.37
2018-03-17T11:37:08.790Z,22.40
2018-03-17T11:39:36.207Z,21.47
2018-03-17T11:42:04.321Z,21.37
2018-03-17T11:44:32.708Z,22.10
2018-03-17T11:47:00.088Z,25.03
2018-03-17T11:49:27.608Z,22.83
2018-03-17T11:51:55.820Z,22.90
2018-03-17T11:54:24.228Z,20.07
2018-03-17T11:56:52.363Z,22.00
2018-03-17T11:59:27.504Z,23.90
2018-03-17T12:01:55.712Z,22.13
2018-03-17T12:04:25.979Z,21.20
2018-03-17T12:06:53.387Z,20.63
2018-03-17T12:09:23.345Z,21.27
2018-03-17T12:11:50.742Z,21.57
2018-03-17T12:14:18.369Z,22.90
2018-03-17T12:16:45.781Z,21.53
2018-03-17T12:19:14.986Z,21.70
2018-03-17T12:21:43.221Z,19.90
2018-03-17T12:24:10.683Z,22.17
2018-03-17T12:26:38.073Z,23.17
2018-03-17T12:29:05.792Z,21.83
2018-03-17T12:31:33.287Z,19.40
2018-03-17T12:34:00.695Z,20.43
2018-03-17T12:36:29.055Z,23.27
2018-03-17T12:38:56.458Z,20.57
2018-03-17T12:41:23.858Z,19.43
2018-03-17T12:43:54.898Z,20.47
2018-03-17T12:46:22.272Z,21.43
2018-03-17T12:48:49.817Z,20.57
2018-03-17T12:51:18.188Z,22.90
2018-03-17T12:53:46.399Z,21.20
2018-03-17T12:56:13.872Z,18.53
2018-03-17T12:58:42.009Z,21.90
2018-03-17T13:01:09.474Z,18.90
2018-03-17T13:03:38.656Z,19.07
2018-03-17T13:06:06.813Z,17.83
2018-03-17T13:08:34.183Z,20.67
2018-03-17T13:11:01.626Z,19.27
2018-03-17T13:13:29.049Z,19.97
2018-03-17T13:15:56.696Z,19.43
2018-03-17T13:18:24.912Z,19.10
2018-03-17T13:20:52.401Z,18.87
2018-03-17T13:23:19.792Z,21.30
2018-03-17T13:25:47.237Z,16.90
2018-03-17T13:28:21.519Z,17.63
2018-03-17T13:30:48.948Z,20.20
2018-03-17T13:33:17.157Z,18.17
2018-03-17T13:35:56.704Z,19.07
2018-03-17T13:38:23.989Z,19.57
2018-03-17T13:40:51.405Z,17.10
2018-03-17T13:43:18.773Z,17.60
2018-03-17T13:45:46.212Z,19.37
2018-03-17T13:48:14.536Z,18.40
2018-03-17T13:50:42.756Z,18.20
2018-03-17T13:53:10.304Z,18.87
2018-03-17T13:55:37.682Z,17.80
2018-03-17T13:58:05.122Z,17.97
2018-03-17T14:00:33.304Z,21.37
2018-03-17T14:03:00.723Z,17.03
2018-03-17T14:05:28.877Z,17.13
2018-03-17T14:07:56.302Z,19.43
2018-03-17T14:10:23.677Z,17.70
2018-03-17T14:12:52.085Z,21.73
2018-03-17T14:15:20.328Z,19.87
2018-03-17T14:17:47.733Z,19.37
2018-03-17T14:20:15.161Z,21.93
2018-03-17T14:22:42.629Z,24.53
2018-03-17T14:25:10.044Z,20.53
2018-03-17T14:27:37.408Z,20.90
2018-03-17T14:30:04.805Z,21.67
2018-03-17T14:32:32.186Z,18.67
2018-03-17T14:34:59.627Z,31.93
2018-03-17T14:37:27.108Z,17.90
2018-03-17T14:39:54.554Z,18.40
2018-03-17T14:42:21.944Z,19.67
2018-03-17T14:44:49.296Z,19.40
2018-03-17T14:47:16.924Z,18.93
2018-03-17T14:49:44.298Z,20.90
2018-03-17T14:52:11.936Z,20.50
2018-03-17T14:54:39.339Z,20.50
2018-03-17T14:57:06.747Z,18.63
2018-03-17T14:59:34.855Z,20.67
2018-03-17T15:02:02.282Z,22.20
2018-03-17T15:04:30.654Z,22.60
2018-03-17T15:06:58.068Z,19.03
2018-03-17T15:09:25.464Z,23.37
2018-03-17T15:11:52.965Z,20.63
2018-03-17T15:14:20.356Z,19.03
2018-03-17T15:16:48.456Z,22.83
2018-03-17T15:19:15.851Z,19.67
2018-03-17T15:21:43.229Z,25.20
2018-03-17T15:24:11.456Z,21.30
2018-03-17T15:26:39.607Z,23.87
2018-03-17T15:29:07.001Z,22.53
2018-03-17T15:31:35.095Z,20.63
2018-03-17T15:34:02.588Z,22.23
2018-03-17T15:36:29.949Z,21.90
2018-03-17T15:38:57.329Z,19.97
2018-03-17T15:41:24.890Z,21.20
2018-03-17T15:43:52.317Z,21.53
2018-03-17T15:46:19.671Z,20.90
2018-03-17T15:48:47.083Z,20.67
2018-03-17T15:51:14.514Z,21.07
2018-03-17T15:53:41.883Z,20.57
2018-03-17T15:56:10.061Z,22.83
2018-03-17T15:58:38.346Z,18.53
2018-03-17T16:01:05.800Z,19.60
2018-03-17T16:03:39.573Z,22.10
2018-03-17T16:06:08.007Z,17.90
2018-03-17T16:08:35.387Z,22.17
2018-03-17T16:11:02.873Z,21.43
2018-03-17T16:13:31.037Z,17.77
2018-03-17T16:15:58.590Z,18.20
2018-03-17T16:18:26.043Z,18.77
2018-03-17T16:20:53.505Z,19.63
2018-03-17T16:23:20.882Z,19.87
2018-03-17T16:25:49.182Z,21.47
2018-03-17T16:28:16.775Z,19.07
2018-03-17T16:30:44.196Z,20.40
2018-03-17T16:33:12.389Z,22.57
2018-03-17T16:35:40.208Z,21.30
2018-03-17T16:38:08.427Z,19.70
2018-03-17T16:40:36.648Z,19.00
2018-03-17T16:43:04.050Z,19.17
2018-03-17T16:45:32.190Z,17.77
2018-03-17T16:47:59.572Z,21.00
2018-03-17T16:50:26.922Z,16.67
2018-03-17T16:52:55.621Z,19.30
2018-03-17T16:55:22.944Z,19.77
2018-03-17T16:57:51.236Z,18.13
2018-03-17T17:00:19.379Z,17.57
2018-03-17T17:02:47.672Z,20.17
2018-03-17T17:05:15.976Z,16.80
2018-03-17T17:07:44.087Z,18.53
2018-03-17T17:10:11.487Z,18.03
2018-03-17T17:12:38.865Z,19.00
2018-03-17T17:15:07.053Z,17.17
2018-03-17T17:17:34.461Z,16.80
2018-03-17T17:20:02.568Z,19.83
2018-03-17T17:22:30.012Z,16.83
2018-03-17T17:24:58.104Z,16.53
2018-03-17T17:27:25.516Z,17.60
2018-03-17T17:29:52.926Z,16.33
2018-03-17T17:32:21.019Z,19.83
2018-03-17T17:34:48.751Z,18.13
2018-03-17T17:37:16.136Z,15.40
2018-03-17T17:39:44.469Z,17.10
2018-03-17T17:42:11.875Z,19.50
2018-03-17T17:44:39.241Z,17.50
2018-03-17T17:47:07.495Z,16.97
2018-03-17T17:49:34.960Z,18.03
2018-03-17T17:52:02.462Z,17.07
2018-03-17T17:54:30.728Z,18.13
2018-03-17T17:56:58.071Z,16.87
2018-03-17T17:59:26.550Z,16.27
2018-03-17T18:01:54.710Z,17.03
2018-03-17T18:04:23.013Z,17.57
2018-03-17T18:06:51.156Z,16.37
2018-03-17T18:09:18.577Z,16.57
2018-03-17T18:11:46.049Z,18.60
2018-03-17T18:14:13.466Z,17.70
2018-03-17T18:16:41.784Z,16.53
2018-03-17T18:19:09.257Z,15.93
2018-03-17T18:21:37.375Z,15.03
2018-03-17T18:24:05.487Z,15.93
2018-03-17T18:26:32.832Z,15.90
2018-03-17T18:29:01.425Z,16.77
2018-03-17T18:31:29.717Z,16.77
2018-03-17T18:33:58.445Z,17.63
2018-03-17T18:36:25.911Z,19.00
2018-03-17T18:38:54.325Z,15.53
2018-03-17T18:41:21.657Z,17.73
2018-03-17T18:43:49.037Z,17.90
2018-03-17T18:46:16.422Z,16.90
2018-03-17T18:48:44.556Z,16.80
2018-03-17T18:51:12.112Z,15.93
2018-03-17T18:53:40.450Z,16.80
2018-03-17T18:56:08.600Z,17.87
2018-03-17T18:58:36.690Z,18.77
2018-03-17T19:01:04.131Z,15.80
2018-03-17T19:03:32.603Z,18.03
2018-03-17T19:06:00.861Z,18.23
2018-03-17T19:08:29.137Z,14.37
2018-03-17T19:10:56.478Z,19.50
2018-03-17T19:13:23.887Z,16.53
2018-03-17T19:15:52.108Z,16.73
2018-03-17T19:18:19.492Z,18.93
2018-03-17T19:20:47.800Z,14.67
2018-03-17T19:23:15.204Z,14.80
2018-03-17T19:25:43.664Z,18.23
2018-03-17T19:28:12.072Z,16.37
2018-03-17T19:30:40.363Z,17.57
2018-03-17T19:33:08.492Z,18.53
2018-03-17T19:35:35.890Z,19.37
2018-03-17T19:38:04.243Z,18.30
2018-03-17T19:40:32.516Z,21.00
2018-03-17T19:42:59.891Z,18.10
2018-03-17T19:45:28.291Z,21.03
2018-03-17T19:47:56.638Z,18.13
2018-03-17T19:50:24.947Z,17.80
2018-03-17T19:52:53.740Z,18.33
2018-03-17T19:55:21.834Z,16.37
2018-03-17T19:57:49.978Z,18.70
2018-03-17T20:00:25.110Z,20.17
2018-03-17T20:02:53.291Z,20.00
2018-03-17T20:05:21.616Z,18.13
2018-03-17T20:07:49.079Z,20.00
2018-03-17T20:10:17.681Z,19.70
2018-03-17T20:12:45.037Z,20.70
2018-03-17T20:15:13.366Z,18.33
2018-03-17T20:17:40.917Z,21.70
2018-03-17T20:20:09.052Z,21.23
2018-03-17T20:22:37.184Z,22.50
2018-03-17T20:25:05.379Z,19.97
2018-03-17T20:27:32.913Z,19.77
2018-03-17T20:30:01.196Z,21.47
2018-03-17T20:32:29.593Z,18.20
2018-03-17T20:34:57.740Z,18.40
2018-03-17T20:37:25.272Z,19.33
2018-03-17T20:39:52.645Z,19.50
2018-03-17T20:42:20.152Z,17.20
2018-03-17T20:44:48.647Z,19.27
2018-03-17T20:47:16.802Z,20.53
2018-03-17T20:49:45.453Z,19.27
2018-03-17T20:52:12.992Z,20.37
2018-03-17T20:54:41.360Z,21.37
2018-03-17T20:57:09.462Z,24.00
2018-03-17T20:59:36.862Z,21.23
2018-03-17T21:02:05.209Z,22.10
2018-03-17T21:04:33.502Z,20.07
2018-03-17T21:07:01.863Z,17.70
2018-03-17T21:09:30.197Z,19.73
2018-03-17T21:11:57.680Z,21.30
2018-03-17T21:14:25.861Z,19.63
2018-03-17T21:16:53.471Z,19.77
2018-03-17T21:19:27.859Z,20.43
2018-03-17T21:21:56.018Z,18.07
2018-03-17T21:24:24.267Z,22.77
2018-03-17T21:26:52.468Z,22.20
2018-03-17T21:29:20.776Z,20.50
2018-03-17T21:31:48.254Z,20.00
2018-03-17T21:34:15.629Z,21.53
2018-03-17T21:36:43.825Z,19.60
2018-03-17T21:39:11.269Z,20.60
2018-03-17T21:41:39.429Z,19.53
2018-03-17T21:44:06.925Z,21.90
2018-03-17T21:46:35.188Z,21.00
2018-03-17T21:49:02.530Z,21.20
2018-03-17T21:51:30.114Z,19.93
2018-03-17T21:53:57.445Z,20.43
2018-03-17T21:56:24.881Z,19.03
2018-03-17T21:58:52.291Z,22.87
2018-03-17T22:01:20.593Z,21.63
2018-03-17T22:03:48.008Z,22.27
2018-03-17T22:06:15.353Z,22.23
2018-03-17T22:08:42.899Z,23.40
2018-03-17T22:11:10.292Z,20.23
2018-03-17T22:13:38.652Z,21.20
2018-03-17T22:16:06.010Z,21.20
2018-03-17T22:18:34.173Z,20.63
2018-03-17T22:21:02.524Z,22.60
2018-03-17T22:23:30.659Z,21.13
2018-03-17T22:25:59.091Z,19.50
2018-03-17T22:28:26.513Z,20.40
2018-03-17T22:30:54.652Z,19.10
2018-03-17T22:33:22.757Z,22.93
2018-03-17T22:35:50.948Z,18.93
2018-03-17T22:38:18.323Z,20.13
2018-03-17T22:40:45.709Z,18.20
2018-03-17T22:43:13.835Z,22.30
2018-03-17T22:45:41.993Z,19.17
2018-03-17T22:48:10.419Z,19.27
2018-03-17T22:50:37.785Z,18.20
2018-03-17T22:53:05.862Z,43.43
2018-03-17T22:55:33.999Z,16.87
2018-03-17T22:58:02.555Z,17.07
2018-03-17T23:00:30.784Z,16.33
2018-03-17T23:02:58.920Z,16.73
2018-03-17T23:05:26.262Z,18.47
2018-03-17T23:07:53.673Z,17.33
2018-03-17T23:10:21.908Z,19.57
2018-03-17T23:12:49.341Z,16.83
2018-03-17T23:15:17.649Z,20.97
2018-03-17T23:17:45.110Z,25.40
2018-03-17T23:20:12.709Z,21.73
2018-03-17T23:22:40.931Z,19.83
2018-03-17T23:25:08.286Z,19.33
2018-03-17T23:27:36.548Z,17.53
2018-03-17T23:30:04.770Z,16.90
2018-03-17T23:32:32.998Z,18.30
2018-03-17T23:35:00.415Z,15.77
2018-03-17T23:37:28.730Z,16.67
2018-03-17T23:39:56.261Z,17.57
2018-03-17T23:42:23.609Z,18.27
2018-03-17T23:44:51.739Z,17.37
2018-03-17T23:47:19.104Z,18.43
2018-03-17T23:49:46.518Z,18.03
2018-03-17T23:52:13.836Z,17.83
2018-03-17T23:54:42.113Z,16.87
2018-03-17T23:57:10.380Z,17.87
2018-03-17T23:59:37.735Z,16.97
